sensor_id;sensor_type;location;lat;lon;timestamp;pressure;altitude;pressure_sealevel;temperature;humidity
42587;BME280;28216;53.362;-6.288;2023-04-04T00:00:59;102425.91;;;8.18;100.00
42587;BME280;28216;53.362;-6.288;2023-04-04T00:03:25;102421.41;;;8.20;100.00
42587;BME280;28216;53.362;-6.288;2023-04-04T00:05:50;102424.31;;;8.16;100.00
42587;BME280;28216;53.362;-6.288;2023-04-04T00:08:16;102419.63;;;8.21;100.00
42587;BME280;28216;53.362;-6.288;2023-04-04T00:10:41;102418.38;;;8.26;100.00
42587;BME280;28216;53.362;-6.288;2023-04-04T00:13:07;102414.00;;;8.27;100.00
42587;BME280;28216;53.362;-6.288;2023-04-04T00:15:33;102420.06;;;8.27;100.00
42587;BME280;28216;53.362;-6.288;2023-04-04T00:18:01;102412.44;;;8.24;100.00
42587;BME280;28216;53.362;-6.288;2023-04-04T00:20:28;102406.06;;;8.28;100.00
42587;BME280;28216;53.362;-6.288;2023-04-04T00:22:54;102412.44;;;8.24;100.00
42587;BME280;28216;53.362;-6.288;2023-04-04T00:25:20;102412.09;;;8.29;100.00
42587;BME280;28216;53.362;-6.288;2023-04-04T00:27:46;102408.44;;;8.19;100.00
42587;BME280;28216;53.362;-6.288;2023-04-04T00:30:12;102402.06;;;8.23;100.00
42587;BME280;28216;53.362;-6.288;2023-04-04T00:32:38;102404.69;;;8.23;100.00
42587;BME280;28216;53.362;-6.288;2023-04-04T00:35:03;102395.19;;;8.22;100.00
42587;BME280;28216;53.362;-6.288;2023-04-04T00:37:29;102397.34;;;8.15;100.00
42587;BME280;28216;53.362;-6.288;2023-04-04T00:39:54;102394.31;;;8.09;100.00
42587;BME280;28216;53.362;-6.288;2023-04-04T00:42:20;102399.53;;;8.09;100.00
42587;BME280;28216;53.362;-6.288;2023-04-04T00:44:46;102397.16;;;8.18;100.00
42587;BME280;28216;53.362;-6.288;2023-04-04T00:47:12;102391.53;;;8.24;100.00
42587;BME280;28216;53.362;-6.288;2023-04-04T00:49:37;102385.88;;;8.18;100.00
42587;BME280;28216;53.362;-6.288;2023-04-04T00:52:03;102387.44;;;8.20;100.00
42587;BME280;28216;53.362;-6.288;2023-04-04T00:54:31;102386.41;;;8.23;100.00
42587;BME280;28216;53.362;-6.288;2023-04-04T00:56:57;102387.03;;;8.26;100.00
42587;BME280;28216;53.362;-6.288;2023-04-04T00:59:25;102385.03;;;8.30;100.00
42587;BME280;28216;53.362;-6.288;2023-04-04T01:01:52;102378.97;;;8.29;100.00
42587;BME280;28216;53.362;-6.288;2023-04-04T01:04:17;102379.72;;;8.32;100.00
42587;BME280;28216;53.362;-6.288;2023-04-04T01:06:43;102375.53;;;8.29;100.00
42587;BME280;28216;53.362;-6.288;2023-04-04T01:09:10;102379.63;;;8.33;100.00
42587;BME280;28216;53.362;-6.288;2023-04-04T01:11:37;102387.16;;;8.38;100.00
42587;BME280;28216;53.362;-6.288;2023-04-04T01:14:02;102378.47;;;8.37;100.00
42587;BME280;28216;53.362;-6.288;2023-04-04T01:16:28;102376.59;;;8.39;100.00
42587;BME280;28216;53.362;-6.288;2023-04-04T01:18:54;102372.31;;;8.38;100.00
42587;BME280;28216;53.362;-6.288;2023-04-04T01:21:21;102379.72;;;8.32;100.00
42587;BME280;28216;53.362;-6.288;2023-04-04T01:24:01;102379.09;;;8.28;100.00
42587;BME280;28216;53.362;-6.288;2023-04-04T01:26:29;102369.16;;;8.20;100.00
42587;BME280;28216;53.362;-6.288;2023-04-04T01:28:56;102366.81;;;8.16;100.00
42587;BME280;28216;53.362;-6.288;2023-04-04T01:31:47;102365.25;;;8.13;100.00
42587;BME280;28216;53.362;-6.288;2023-04-04T01:34:27;102364.41;;;8.13;100.00
42587;BME280;28216;53.362;-6.288;2023-04-04T01:37:05;102358.66;;;8.08;100.00
42587;BME280;28216;53.362;-6.288;2023-04-04T01:42:02;102358.88;;;8.05;100.00
42587;BME280;28216;53.362;-6.288;2023-04-04T01:44:27;102357.09;;;8.05;100.00
42587;BME280;28216;53.362;-6.288;2023-04-04T01:46:53;102355.22;;;8.07;100.00
42587;BME280;28216;53.362;-6.288;2023-04-04T01:49:19;102353.66;;;8.05;100.00
42587;BME280;28216;53.362;-6.288;2023-04-04T01:51:45;102354.59;;;8.04;100.00
42587;BME280;28216;53.362;-6.288;2023-04-04T01:54:11;102346.88;;;8.02;100.00
42587;BME280;28216;53.362;-6.288;2023-04-04T01:56:36;102343.50;;;8.00;100.00
42587;BME280;28216;53.362;-6.288;2023-04-04T01:59:02;102338.19;;;8.02;100.00
42587;BME280;28216;53.362;-6.288;2023-04-04T02:01:27;102345.81;;;8.05;100.00
42587;BME280;28216;53.362;-6.288;2023-04-04T02:03:53;102342.47;;;8.03;100.00
42587;BME280;28216;53.362;-6.288;2023-04-04T02:06:18;102336.50;;;8.01;100.00
42587;BME280;28216;53.362;-6.288;2023-04-04T02:08:44;102330.25;;;8.03;100.00
42587;BME280;28216;53.362;-6.288;2023-04-04T02:11:09;102338.19;;;8.02;100.00
42587;BME280;28216;53.362;-6.288;2023-04-04T02:13:35;102335.78;;;7.98;100.00
42587;BME280;28216;53.362;-6.288;2023-04-04T02:16:05;102343.63;;;7.98;100.00
42587;BME280;28216;53.362;-6.288;2023-04-04T02:18:31;102341.94;;;7.97;100.00
42587;BME280;28216;53.362;-6.288;2023-04-04T02:20:57;102338.59;;;7.95;100.00
42587;BME280;28216;53.362;-6.288;2023-04-04T02:23:23;102334.13;;;7.97;100.00
42587;BME280;28216;53.362;-6.288;2023-04-04T02:25:49;102333.19;;;7.98;100.00
42587;BME280;28216;53.362;-6.288;2023-04-04T02:28:15;102333.59;;;7.92;100.00
42587;BME280;28216;53.362;-6.288;2023-04-04T02:30:41;102324.91;;;7.92;100.00
42587;BME280;28216;53.362;-6.288;2023-04-04T02:33:06;102323.03;;;7.94;100.00
42587;BME280;28216;53.362;-6.288;2023-04-04T02:35:32;102330.13;;;7.92;100.00
42587;BME280;28216;53.362;-6.288;2023-04-04T02:37:57;102325.66;;;7.94;100.00
42587;BME280;28216;53.362;-6.288;2023-04-04T02:40:23;102328.16;;;7.95;100.00
42587;BME280;28216;53.362;-6.288;2023-04-04T02:42:48;102323.97;;;7.93;100.00
42587;BME280;28216;53.362;-6.288;2023-04-04T02:45:14;102319.38;;;7.96;100.00
42587;BME280;28216;53.362;-6.288;2023-04-04T02:47:40;102320.94;;;7.99;100.00
42587;BME280;28216;53.362;-6.288;2023-04-04T02:50:07;102320.31;;;7.95;100.00
42587;BME280;28216;53.362;-6.288;2023-04-04T02:52:33;102317.72;;;7.95;100.00
42587;BME280;28216;53.362;-6.288;2023-04-04T02:54:58;102325.84;;;7.91;100.00
42587;BME280;28216;53.362;-6.288;2023-04-04T02:57:24;102321.47;;;7.91;100.00
42587;BME280;28216;53.362;-6.288;2023-04-04T02:59:49;102325.34;;;7.98;100.00
42587;BME280;28216;53.362;-6.288;2023-04-04T03:02:15;102309.25;;;8.05;100.00
42587;BME280;28216;53.362;-6.288;2023-04-04T03:04:40;102321.47;;;8.04;100.00
42587;BME280;28216;53.362;-6.288;2023-04-04T03:07:06;102314.38;;;8.06;100.00
42587;BME280;28216;53.362;-6.288;2023-04-04T03:09:31;102319.69;;;8.05;100.00
42587;BME280;28216;53.362;-6.288;2023-04-04T03:11:56;102318.66;;;8.07;100.00
42587;BME280;28216;53.362;-6.288;2023-04-04T03:14:22;102313.09;;;8.12;100.00
42587;BME280;28216;53.362;-6.288;2023-04-04T03:16:48;102309.44;;;8.14;100.00
42587;BME280;28216;53.362;-6.288;2023-04-04T03:19:14;102313.44;;;8.20;100.00
42587;BME280;28216;53.362;-6.288;2023-04-04T03:21:40;102307.19;;;8.22;100.00
42587;BME280;28216;53.362;-6.288;2023-04-04T03:24:05;102297.44;;;8.24;100.00
42587;BME280;28216;53.362;-6.288;2023-04-04T03:26:31;102303.41;;;8.26;100.00
42587;BME280;28216;53.362;-6.288;2023-04-04T03:28:56;102300.78;;;8.26;100.00
42587;BME280;28216;53.362;-6.288;2023-04-04T03:31:22;102295.88;;;8.22;100.00
42587;BME280;28216;53.362;-6.288;2023-04-04T03:33:47;102299.97;;;8.26;100.00
42587;BME280;28216;53.362;-6.288;2023-04-04T03:36:13;102288.78;;;8.24;100.00
42587;BME280;28216;53.362;-6.288;2023-04-04T03:38:39;102292.22;;;8.24;100.00
42587;BME280;28216;53.362;-6.288;2023-04-04T03:41:04;102293.38;;;8.20;100.00
42587;BME280;28216;53.362;-6.288;2023-04-04T03:43:31;102287.31;;;8.20;100.00
42587;BME280;28216;53.362;-6.288;2023-04-04T03:46:04;102284.88;;;8.17;100.00
42587;BME280;28216;53.362;-6.288;2023-04-04T03:48:30;102289.19;;;8.18;100.00
42587;BME280;28216;53.362;-6.288;2023-04-04T03:50:56;102286.38;;;8.21;100.00
42587;BME280;28216;53.362;-6.288;2023-04-04T03:53:23;102281.88;;;8.23;100.00
42587;BME280;28216;53.362;-6.288;2023-04-04T03:55:49;102278.13;;;8.27;100.00
42587;BME280;28216;53.362;-6.288;2023-04-04T03:58:14;102285.75;;;8.30;100.00
42587;BME280;28216;53.362;-6.288;2023-04-04T04:00:40;102278.44;;;8.35;100.00
42587;BME280;28216;53.362;-6.288;2023-04-04T04:03:05;102279.47;;;8.33;100.00
42587;BME280;28216;53.362;-6.288;2023-04-04T04:05:31;102283.00;;;8.32;100.00
42587;BME280;28216;53.362;-6.288;2023-04-04T04:07:56;102280.00;;;8.25;100.00
42587;BME280;28216;53.362;-6.288;2023-04-04T04:10:22;102274.44;;;8.29;100.00
42587;BME280;28216;53.362;-6.288;2023-04-04T04:12:47;102282.94;;;8.33;100.00
42587;BME280;28216;53.362;-6.288;2023-04-04T04:15:13;102285.22;;;8.38;100.00
42587;BME280;28216;53.362;-6.288;2023-04-04T04:17:39;102278.13;;;8.40;100.00
42587;BME280;28216;53.362;-6.288;2023-04-04T04:20:06;102277.06;;;8.42;100.00
42587;BME280;28216;53.362;-6.288;2023-04-04T04:22:33;102274.97;;;8.47;100.00
42587;BME280;28216;53.362;-6.288;2023-04-04T04:24:58;102282.59;;;8.50;100.00
42587;BME280;28216;53.362;-6.288;2023-04-04T04:27:23;102270.13;;;8.54;100.00
42587;BME280;28216;53.362;-6.288;2023-04-04T04:29:49;102269.59;;;8.62;100.00
42587;BME280;28216;53.362;-6.288;2023-04-04T04:32:18;102269.47;;;8.63;100.00
42587;BME280;28216;53.362;-6.288;2023-04-04T04:34:43;102268.41;;;8.66;100.00
42587;BME280;28216;53.362;-6.288;2023-04-04T04:37:09;102268.31;;;8.67;100.00
42587;BME280;28216;53.362;-6.288;2023-04-04T04:39:34;102258.78;;;8.66;100.00
42587;BME280;28216;53.362;-6.288;2023-04-04T04:42:01;102252.19;;;8.73;100.00
42587;BME280;28216;53.362;-6.288;2023-04-04T04:44:27;102243.28;;;8.76;100.00
42587;BME280;28216;53.362;-6.288;2023-04-04T04:46:52;102244.22;;;8.75;100.00
42587;BME280;28216;53.362;-6.288;2023-04-04T04:49:18;102238.03;;;8.76;100.00
42587;BME280;28216;53.362;-6.288;2023-04-04T04:51:43;102232.38;;;8.82;100.00
42587;BME280;28216;53.362;-6.288;2023-04-04T04:54:09;102235.72;;;8.84;100.00
42587;BME280;28216;53.362;-6.288;2023-04-04T04:56:35;102242.84;;;8.82;100.00
42587;BME280;28216;53.362;-6.288;2023-04-04T04:59:01;102241.16;;;8.81;100.00
42587;BME280;28216;53.362;-6.288;2023-04-04T05:01:27;102243.66;;;8.82;100.00
42587;BME280;28216;53.362;-6.288;2023-04-04T05:03:52;102244.72;;;8.80;100.00
42587;BME280;28216;53.362;-6.288;2023-04-04T05:06:17;102246.41;;;8.81;100.00
42587;BME280;28216;53.362;-6.288;2023-04-04T05:08:43;102240.00;;;8.85;100.00
42587;BME280;28216;53.362;-6.288;2023-04-04T05:11:08;102244.50;;;8.83;100.00
42587;BME280;28216;53.362;-6.288;2023-04-04T05:13:34;102256.53;;;8.85;100.00
42587;BME280;28216;53.362;-6.288;2023-04-04T05:16:00;102249.63;;;8.84;100.00
42587;BME280;28216;53.362;-6.288;2023-04-04T05:18:25;102240.94;;;8.84;100.00
42587;BME280;28216;53.362;-6.288;2023-04-04T05:20:53;102240.94;;;8.84;100.00
42587;BME280;28216;53.362;-6.288;2023-04-04T05:23:19;102232.59;;;8.79;100.00
42587;BME280;28216;53.362;-6.288;2023-04-04T05:25:44;102242.78;;;8.71;100.00
42587;BME280;28216;53.362;-6.288;2023-04-04T05:28:10;102229.09;;;8.67;100.00
42587;BME280;28216;53.362;-6.288;2023-04-04T05:30:35;102240.16;;;8.71;100.00
42587;BME280;28216;53.362;-6.288;2023-04-04T05:33:01;102234.38;;;8.78;100.00
42587;BME280;28216;53.362;-6.288;2023-04-04T05:35:26;102229.97;;;8.79;100.00
42587;BME280;28216;53.362;-6.288;2023-04-04T05:37:52;102234.59;;;8.75;100.00
42587;BME280;28216;53.362;-6.288;2023-04-04T05:40:17;102238.66;;;8.79;100.00
42587;BME280;28216;53.362;-6.288;2023-04-04T05:42:43;102241.06;;;8.82;100.00
42587;BME280;28216;53.362;-6.288;2023-04-04T05:45:09;102236.78;;;8.81;100.00
42587;BME280;28216;53.362;-6.288;2023-04-04T05:47:35;102243.34;;;8.87;100.00
42587;BME280;28216;53.362;-6.288;2023-04-04T05:50:00;102243.56;;;8.84;100.00
42587;BME280;28216;53.362;-6.288;2023-04-04T05:52:26;102250.22;;;8.88;100.00
42587;BME280;28216;53.362;-6.288;2023-04-04T05:54:51;102249.50;;;8.86;100.00
42587;BME280;28216;53.362;-6.288;2023-04-04T05:57:17;102243.88;;;8.92;100.00
42587;BME280;28216;53.362;-6.288;2023-04-04T05:59:42;102243.75;;;8.94;100.00
42587;BME280;28216;53.362;-6.288;2023-04-04T06:02:07;102236.75;;;8.94;100.00
42587;BME280;28216;53.362;-6.288;2023-04-04T06:04:33;102244.47;;;8.96;100.00
42587;BME280;28216;53.362;-6.288;2023-04-04T06:06:59;102237.16;;;8.88;100.00
42587;BME280;28216;53.362;-6.288;2023-04-04T06:09:25;102234.66;;;8.86;100.00
42587;BME280;28216;53.362;-6.288;2023-04-04T06:12:12;102246.16;;;8.84;100.00
42587;BME280;28216;53.362;-6.288;2023-04-04T06:14:56;102245.56;;;8.80;100.00
42587;BME280;28216;53.362;-6.288;2023-04-04T06:17:25;102255.53;;;8.75;100.00
42587;BME280;28216;53.362;-6.288;2023-04-04T06:19:51;102248.50;;;8.76;100.00
42587;BME280;28216;53.362;-6.288;2023-04-04T06:22:18;102253.13;;;8.72;100.00
42587;BME280;28216;53.362;-6.288;2023-04-04T06:25:07;102258.13;;;8.75;100.00
42587;BME280;28216;53.362;-6.288;2023-04-04T06:27:41;102257.31;;;8.75;100.00
42587;BME280;28216;53.362;-6.288;2023-04-04T06:30:10;102267.81;;;8.86;100.00
42587;BME280;28216;53.362;-6.288;2023-04-04T06:32:36;102275.44;;;8.89;100.00
42587;BME280;28216;53.362;-6.288;2023-04-04T06:35:01;102274.84;;;8.85;100.00
42587;BME280;28216;53.362;-6.288;2023-04-04T06:37:28;102270.31;;;8.87;100.00
42587;BME280;28216;53.362;-6.288;2023-04-04T06:39:54;102269.16;;;8.91;100.00
42587;BME280;28216;53.362;-6.288;2023-04-04T06:42:19;102276.09;;;8.93;100.00
42587;BME280;28216;53.362;-6.288;2023-04-04T06:44:45;102278.47;;;8.96;100.00
42587;BME280;28216;53.362;-6.288;2023-04-04T06:47:10;102277.09;;;9.03;100.00
42587;BME280;28216;53.362;-6.288;2023-04-04T06:49:36;102269.72;;;9.08;100.00
42587;BME280;28216;53.362;-6.288;2023-04-04T06:52:02;102272.97;;;9.11;100.00
42587;BME280;28216;53.362;-6.288;2023-04-04T06:54:28;102270.00;;;9.16;100.00
42587;BME280;28216;53.362;-6.288;2023-04-04T06:56:54;102272.38;;;9.19;100.00
42587;BME280;28216;53.362;-6.288;2023-04-04T06:59:19;102261.69;;;9.22;100.00
42587;BME280;28216;53.362;-6.288;2023-04-04T07:01:45;102260.03;;;9.21;100.00
42587;BME280;28216;53.362;-6.288;2023-04-04T07:04:10;102253.00;;;9.21;100.00
42587;BME280;28216;53.362;-6.288;2023-04-04T07:06:36;102247.63;;;9.12;100.00
42587;BME280;28216;53.362;-6.288;2023-04-04T07:09:01;102256.75;;;9.06;100.00
42587;BME280;28216;53.362;-6.288;2023-04-04T07:11:29;102257.59;;;9.07;100.00
42587;BME280;28216;53.362;-6.288;2023-04-04T07:13:55;102253.81;;;9.11;100.00
42587;BME280;28216;53.362;-6.288;2023-04-04T07:16:20;102248.81;;;9.08;100.00
42587;BME280;28216;53.362;-6.288;2023-04-04T07:18:46;102248.47;;;9.12;100.00
42587;BME280;28216;53.362;-6.288;2023-04-04T07:21:11;102255.22;;;9.04;100.00
42587;BME280;28216;53.362;-6.288;2023-04-04T07:23:37;102253.91;;;9.09;100.00
42587;BME280;28216;53.362;-6.288;2023-04-04T07:26:06;102254.69;;;9.22;100.00
42587;BME280;28216;53.362;-6.288;2023-04-04T07:28:36;102247.22;;;9.29;100.00
42587;BME280;28216;53.362;-6.288;2023-04-04T07:31:24;102248.31;;;9.38;100.00
42587;BME280;28216;53.362;-6.288;2023-04-04T07:33:52;102248.19;;;9.39;100.00
42587;BME280;28216;53.362;-6.288;2023-04-04T07:36:18;102245.69;;;9.38;100.00
42587;BME280;28216;53.362;-6.288;2023-04-04T07:38:44;102241.19;;;9.51;100.00
42587;BME280;28216;53.362;-6.288;2023-04-04T07:41:09;102242.28;;;9.60;100.00
42587;BME280;28216;53.362;-6.288;2023-04-04T07:43:36;102238.59;;;9.62;100.00
42587;BME280;28216;53.362;-6.288;2023-04-04T07:46:01;102221.13;;;9.74;100.00
42587;BME280;28216;53.362;-6.288;2023-04-04T07:48:27;102224.94;;;9.92;100.00
42587;BME280;28216;53.362;-6.288;2023-04-04T07:50:52;102215.19;;;9.94;100.00
42587;BME280;28216;53.362;-6.288;2023-04-04T07:53:18;102215.19;;;10.05;100.00
42587;BME280;28216;53.362;-6.288;2023-04-04T07:55:43;102209.56;;;10.10;100.00
42587;BME280;28216;53.362;-6.288;2023-04-04T07:58:47;102217.44;;;10.21;100.00
42587;BME280;28216;53.362;-6.288;2023-04-04T08:01:13;102215.19;;;10.28;100.00
42587;BME280;28216;53.362;-6.288;2023-04-04T08:03:38;102210.28;;;10.34;100.00
42587;BME280;28216;53.362;-6.288;2023-04-04T08:06:04;102205.03;;;10.34;100.00
42587;BME280;28216;53.362;-6.288;2023-04-04T08:08:29;102205.88;;;10.35;100.00
42587;BME280;28216;53.362;-6.288;2023-04-04T08:10:55;102202.78;;;10.41;100.00
42587;BME280;28216;53.362;-6.288;2023-04-04T08:13:20;102201.97;;;10.40;100.00
42587;BME280;28216;53.362;-6.288;2023-04-04T08:15:45;102200.03;;;10.42;100.00
42587;BME280;28216;53.362;-6.288;2023-04-04T08:18:11;102197.06;;;10.47;100.00
42587;BME280;28216;53.362;-6.288;2023-04-04T08:20:36;102201.22;;;10.49;100.00
42587;BME280;28216;53.362;-6.288;2023-04-04T08:23:02;102192.41;;;10.50;100.00
42587;BME280;28216;53.362;-6.288;2023-04-04T08:25:28;102191.31;;;10.53;100.00
42587;BME280;28216;53.362;-6.288;2023-04-04T08:27:54;102196.44;;;10.55;100.00
42587;BME280;28216;53.362;-6.288;2023-04-04T08:30:20;102197.84;;;10.59;100.00
42587;BME280;28216;53.362;-6.288;2023-04-04T08:32:46;102193.44;;;10.59;100.00
42587;BME280;28216;53.362;-6.288;2023-04-04T08:35:13;102188.78;;;10.63;100.00
42587;BME280;28216;53.362;-6.288;2023-04-04T08:37:45;102193.31;;;10.61;100.00
42587;BME280;28216;53.362;-6.288;2023-04-04T08:40:11;102190.69;;;10.61;100.00
42587;BME280;28216;53.362;-6.288;2023-04-04T08:42:39;102177.06;;;10.67;100.00
42587;BME280;28216;53.362;-6.288;2023-04-04T08:45:06;102186.09;;;10.74;100.00
42587;BME280;28216;53.362;-6.288;2023-04-04T08:47:34;102178.00;;;10.77;100.00
42587;BME280;28216;53.362;-6.288;2023-04-04T08:50:05;102192.25;;;10.84;100.00
42587;BME280;28216;53.362;-6.288;2023-04-04T08:52:33;102191.50;;;10.93;100.00
42587;BME280;28216;53.362;-6.288;2023-04-04T08:54:59;102195.66;;;10.96;100.00
42587;BME280;28216;53.362;-6.288;2023-04-04T08:57:24;102183.97;;;11.00;100.00
42587;BME280;28216;53.362;-6.288;2023-04-04T08:59:50;102182.03;;;11.02;100.00
42587;BME280;28216;53.362;-6.288;2023-04-04T09:02:33;102181.91;;;11.03;100.00
42587;BME280;28216;53.362;-6.288;2023-04-04T09:05:00;102184.78;;;11.00;100.00
42587;BME280;28216;53.362;-6.288;2023-04-04T09:07:26;102179.66;;;10.99;100.00
42587;BME280;28216;53.362;-6.288;2023-04-04T09:09:53;102178.13;;;10.96;100.00
42587;BME280;28216;53.362;-6.288;2023-04-04T09:12:19;102172.88;;;10.96;100.00
42587;BME280;28216;53.362;-6.288;2023-04-04T09:14:47;102167.63;;;10.96;100.00
42587;BME280;28216;53.362;-6.288;2023-04-04T09:17:14;102172.38;;;11.02;100.00
42587;BME280;28216;53.362;-6.288;2023-04-04T09:19:40;102184.28;;;11.06;100.00
42587;BME280;28216;53.362;-6.288;2023-04-04T09:22:07;102192.47;;;11.13;100.00
42587;BME280;28216;53.362;-6.288;2023-04-04T09:24:41;102182.31;;;11.20;100.00
42587;BME280;28216;53.362;-6.288;2023-04-04T09:27:11;102184.31;;;11.27;100.00
42587;BME280;28216;53.362;-6.288;2023-04-04T09:29:37;102189.00;;;11.24;100.00
42587;BME280;28216;53.362;-6.288;2023-04-04T09:32:09;102176.00;;;11.22;100.00
42587;BME280;28216;53.362;-6.288;2023-04-04T09:34:35;102176.09;;;11.41;100.00
42587;BME280;28216;53.362;-6.288;2023-04-04T09:37:03;102174.66;;;11.58;100.00
42587;BME280;28216;53.362;-6.288;2023-04-04T09:39:29;102178.03;;;11.70;100.00
42587;BME280;28216;53.362;-6.288;2023-04-04T09:41:57;102180.47;;;11.83;100.00
42587;BME280;28216;53.362;-6.288;2023-04-04T09:44:23;102175.34;;;11.81;100.00
42587;BME280;28216;53.362;-6.288;2023-04-04T09:46:49;102172.44;;;11.84;100.00
42587;BME280;28216;53.362;-6.288;2023-04-04T09:49:19;102165.59;;;11.93;100.00
42587;BME280;28216;53.362;-6.288;2023-04-04T09:51:52;102167.81;;;11.97;100.00
42587;BME280;28216;53.362;-6.288;2023-04-04T09:54:22;102165.06;;;12.08;100.00
42587;BME280;28216;53.362;-6.288;2023-04-04T09:56:49;102164.94;;;12.10;100.00
42587;BME280;28216;53.362;-6.288;2023-04-04T09:59:19;102166.75;;;12.09;100.00
42587;BME280;28216;53.362;-6.288;2023-04-04T10:01:46;102158.44;;;12.14;100.00
42587;BME280;28216;53.362;-6.288;2023-04-04T10:04:15;102158.44;;;12.14;100.00
42587;BME280;28216;53.362;-6.288;2023-04-04T10:06:42;102151.94;;;12.08;100.00
42587;BME280;28216;53.362;-6.288;2023-04-04T10:09:08;102158.00;;;11.99;100.00
42587;BME280;28216;53.362;-6.288;2023-04-04T10:11:34;102159.94;;;12.07;100.00
42587;BME280;28216;53.362;-6.288;2023-04-04T10:14:01;102158.56;;;12.03;100.00
42587;BME280;28216;53.362;-6.288;2023-04-04T10:16:31;102150.53;;;12.04;100.00
42587;BME280;28216;53.362;-6.288;2023-04-04T10:18:59;102142.94;;;12.11;100.00
42587;BME280;28216;53.362;-6.288;2023-04-04T10:21:26;102144.34;;;12.15;100.00
42587;BME280;28216;53.362;-6.288;2023-04-04T10:24:12;102144.47;;;12.14;100.00
42587;BME280;28216;53.362;-6.288;2023-04-04T10:26:38;102151.81;;;12.20;100.00
42587;BME280;28216;53.362;-6.288;2023-04-04T10:29:04;102152.78;;;12.28;100.00
42587;BME280;28216;53.362;-6.288;2023-04-04T10:31:32;102157.94;;;12.39;100.00
42587;BME280;28216;53.362;-6.288;2023-04-04T10:36:49;102147.56;;;12.57;100.00
42587;BME280;28216;53.362;-6.288;2023-04-04T10:39:26;102162.09;;;12.61;100.00
42587;BME280;28216;53.362;-6.288;2023-04-04T10:41:54;102162.13;;;12.71;100.00
42587;BME280;28216;53.362;-6.288;2023-04-04T10:44:33;102146.47;;;12.79;100.00
42587;BME280;28216;53.362;-6.288;2023-04-04T10:47:17;102141.34;;;12.87;100.00
42587;BME280;28216;53.362;-6.288;2023-04-04T10:49:45;102143.81;;;12.98;100.00
42587;BME280;28216;53.362;-6.288;2023-04-04T10:52:14;102144.34;;;13.12;100.00
42587;BME280;28216;53.362;-6.288;2023-04-04T10:54:41;102140.59;;;13.24;100.00
42587;BME280;28216;53.362;-6.288;2023-04-04T10:57:17;102141.81;;;13.29;100.00
42587;BME280;28216;53.362;-6.288;2023-04-04T11:00:04;102143.91;;;13.16;100.00
42587;BME280;28216;53.362;-6.288;2023-04-04T11:02:48;102145.44;;;13.28;100.00
42587;BME280;28216;53.362;-6.288;2023-04-04T11:08:00;102140.59;;;13.24;100.00
42587;BME280;28216;53.362;-6.288;2023-04-04T11:10:37;102133.66;;;13.23;100.00
42587;BME280;28216;53.362;-6.288;2023-04-04T11:21:06;102130.84;;;13.34;100.00
42587;BME280;28216;53.362;-6.288;2023-04-04T11:26:17;102130.03;;;13.33;100.00
42587;BME280;28216;53.362;-6.288;2023-04-04T11:28:45;102122.97;;;13.34;100.00
42587;BME280;28216;53.362;-6.288;2023-04-04T11:39:16;102105.97;;;13.19;100.00
42587;BME280;28216;53.362;-6.288;2023-04-04T11:44:20;102095.63;;;13.35;100.00
42587;BME280;28216;53.362;-6.288;2023-04-04T11:46:47;102090.81;;;13.30;100.00
42587;BME280;28216;53.362;-6.288;2023-04-04T11:49:14;102090.94;;;13.39;100.00
42587;BME280;28216;53.362;-6.288;2023-04-04T11:51:40;102080.50;;;13.47;100.00
42587;BME280;28216;53.362;-6.288;2023-04-04T11:54:15;102077.91;;;13.64;100.00
42587;BME280;28216;53.362;-6.288;2023-04-04T11:56:42;102077.81;;;13.84;100.00
42587;BME280;28216;53.362;-6.288;2023-04-04T11:59:11;102078.81;;;14.00;100.00
42587;BME280;28216;53.362;-6.288;2023-04-04T12:01:38;102077.63;;;14.13;100.00
42587;BME280;28216;53.362;-6.288;2023-04-04T12:04:03;102072.06;;;14.16;100.00
42587;BME280;28216;53.362;-6.288;2023-04-04T12:06:29;102071.94;;;14.08;100.00
42587;BME280;28216;53.362;-6.288;2023-04-04T12:08:57;102064.97;;;14.16;100.00
42587;BME280;28216;53.362;-6.288;2023-04-04T12:11:24;102049.91;;;14.26;100.00
42587;BME280;28216;53.362;-6.288;2023-04-04T12:13:53;102049.50;;;14.39;100.00
42587;BME280;28216;53.362;-6.288;2023-04-04T12:16:19;102053.59;;;14.51;100.00
42587;BME280;28216;53.362;-6.288;2023-04-04T12:18:55;102042.41;;;14.57;100.00
42587;BME280;28216;53.362;-6.288;2023-04-04T12:21:21;102043.03;;;14.34;100.00
42587;BME280;28216;53.362;-6.288;2023-04-04T12:23:47;102037.53;;;14.27;100.00
42587;BME280;28216;53.362;-6.288;2023-04-04T12:26:17;102038.88;;;14.49;100.00
42587;BME280;28216;53.362;-6.288;2023-04-04T12:28:57;102035.94;;;14.52;100.00
42587;BME280;28216;53.362;-6.288;2023-04-04T12:31:25;102035.91;;;14.70;100.00
42587;BME280;28216;53.362;-6.288;2023-04-04T12:33:52;102038.56;;;14.96;100.00
42587;BME280;28216;53.362;-6.288;2023-04-04T12:36:18;102031.94;;;14.91;100.00
42587;BME280;28216;53.362;-6.288;2023-04-04T12:39:06;102026.84;;;14.98;100.00
42587;BME280;28216;53.362;-6.288;2023-04-04T12:41:33;102025.44;;;14.86;100.00
42587;BME280;28216;53.362;-6.288;2023-04-04T12:44:01;102012.59;;;14.65;100.00
42587;BME280;28216;53.362;-6.288;2023-04-04T12:46:33;102009.91;;;14.83;100.00
42587;BME280;28216;53.362;-6.288;2023-04-04T12:48:59;102015.41;;;14.63;100.00
42587;BME280;28216;53.362;-6.288;2023-04-04T12:51:30;102011.38;;;14.77;100.00
42587;BME280;28216;53.362;-6.288;2023-04-04T12:53:57;102007.50;;;14.89;100.00
42587;BME280;28216;53.362;-6.288;2023-04-04T12:56:27;102007.03;;;14.94;100.00
42587;BME280;28216;53.362;-6.288;2023-04-04T12:58:53;102000.56;;;14.88;100.00
42587;BME280;28216;53.362;-6.288;2023-04-04T13:01:24;101999.56;;;14.89;100.00
42587;BME280;28216;53.362;-6.288;2023-04-04T13:03:49;101997.00;;;15.06;100.00
42587;BME280;28216;53.362;-6.288;2023-04-04T13:06:16;101996.06;;;15.15;100.00